logo
Rechercher aéroport 
image banner adimage banner adimage banner ad
image banner ad

KCMA - Camarillo

Situé à Camarillo, United States

ICAO - CMA, IATA -

Données fournies par Airmate  

Information générale

Coordonnées: N34°12'50" W119°5'40"
Élévation : 76 feet MSL.
Variation magnétique : 14° East
Voir autres Aéroports à California

Données opérationnelles

Special qualification required
Heure actuelle UTC:
Heure actuelle locale:
Météo
METAR: KCMA 281255Z AUTO 05003KT 8SM CLR 17/14 A2989 RMK AO2 SLP131 T01670144
TAF: KCMA 281148Z 2812/2912 VRB03KT P6SM SKC FM282100 25009KT P6SM SKC FM290300 VRB03KT P6SM SKC
Voir NOTAMs / SUP AIP / TFR affectant cet aéroport [VIEW]
Fréquences de communication: [VIEW]

Pistes:

Identifiant RWYQFULongueur (ft)Largeur (ft)SurfaceLDA (ft)
0890°6013150OTHER
26270°6013150OTHER

Coordonnées de l'aéroport

Adresse: Camarillo United States

Autres services d'aviation

Écoles de pilotage

Channel Islands Aviation, Inc

Channel Islands Aviation, Inc
cia@flycia.com+1(805)987-1301

Camarillo Flight Instruction

Camarillo Flight Instruction

Atp Flight School (800-All-Atps)

Atp Flight School (800-All-Atps)

Vue satellite de KCMA